Time;durP1;ratioP1;P1;durP2;ratioP2;P2;SDS_P1;SDS_P2;PMS_P1;PMS_P2;Temp;Humidity;BMP_temperature;BMP_pressure;BME280_temperature;BME280_humidity;BME280_pressure;Samples;Min_cycle;Max_cycle;Signal;HPM_P1;HPM_P2
2021/06/04 00:02:17;;;;;;;;;;;15.30;78.80;;;;;;5119408;27;88049;-47
2021/06/04 00:04:42;;;;;;;;;;;15.30;78.80;;;;;;5120995;27;88067;-49
2021/06/04 00:07:08;;;;;;;;;;;15.30;78.80;;;;;;5120019;27;88253;-48
2021/06/04 00:09:33;;;;;;;;;;;15.40;78.80;;;;;;5118834;27;87195;-48
2021/06/04 00:12:01;;;;;;;;;;;15.30;78.80;;;;;;5118045;27;87528;-48
2021/06/04 00:14:30;;;;;;;;;;;15.30;78.70;;;;;;5121237;27;88005;-48
2021/06/04 00:17:05;;;;;;;;;;;15.30;78.70;;;;;;5122889;27;87237;-48
2021/06/04 00:19:32;;;;;;;;;;;15.30;78.70;;;;;;5122426;27;89419;-48
2021/06/04 00:22:00;;;;;;;;;;;15.30;78.70;;;;;;5120291;27;87154;-47
2021/06/04 00:24:26;;;;;;;;;;;15.30;78.60;;;;;;5119220;27;88751;-49
2021/06/04 00:26:51;;;;;;;;;;;15.30;78.70;;;;;;5120316;27;89339;-47
2021/06/04 00:29:17;;;;;;;;;;;15.30;78.60;;;;;;5119203;27;88201;-48
2021/06/04 00:31:44;;;;;;;;;;;15.20;78.60;;;;;;5119702;27;87130;-47
2021/06/04 00:34:12;;;;;;;;;;;15.20;78.50;;;;;;5123279;27;87590;-48
2021/06/04 00:36:38;;;;;;;;;;;15.20;78.50;;;;;;5123560;27;87215;-48
2021/06/04 00:39:05;;;;;;;;;;;15.20;78.50;;;;;;5123393;27;88478;-48
2021/06/04 00:41:34;;;;;;;;;;;15.20;78.40;;;;;;5124924;27;87093;-47
2021/06/04 00:43:59;;;;;;;;;;;15.20;78.50;;;;;;5124913;27;89364;-49
2021/06/04 00:46:26;;;;;;;;;;;15.20;78.50;;;;;;5122827;27;88208;-47
2021/06/04 00:48:52;;;;;;;;;;;15.20;78.50;;;;;;5122492;27;87142;-47
2021/06/04 00:51:23;;;;;;;;;;;15.20;78.50;;;;;;5124309;27;88879;-47
2021/06/04 00:53:50;;;;;;;;;;;15.10;78.30;;;;;;5122861;27;88789;-48
2021/06/04 00:56:16;;;;;;;;;;;15.10;78.30;;;;;;5125095;27;87168;-48
2021/06/04 00:58:43;;;;;;;;;;;15.10;78.40;;;;;;5106479;27;90560;-47
2021/06/04 01:01:10;;;;;;;;;;;15.10;78.30;;;;;;5126651;27;88191;-47
2021/06/04 01:03:37;;;;;;;;;;;15.10;78.40;;;;;;5124055;27;88868;-47
2021/06/04 01:06:19;;;;;;;;;;;15.10;78.40;;;;;;5122410;27;91422;-47
2021/06/04 01:08:44;;;;;;;;;;;15.10;78.30;;;;;;5123589;27;86483;-48
2021/06/04 01:11:26;;;;;;;;;;;15.10;78.40;;;;;;5124087;27;87095;-48
2021/06/04 01:14:03;;;;;;;;;;;15.00;78.30;;;;;;5121852;27;89576;-47
2021/06/04 01:16:29;;;;;;;;;;;15.00;78.30;;;;;;5120387;27;88052;-47
2021/06/04 01:19:01;;;;;;;;;;;15.00;78.10;;;;;;5122352;27;89568;-48
2021/06/04 01:21:26;;;;;;;;;;;15.00;78.20;;;;;;5120244;27;89660;-49
2021/06/04 01:23:52;;;;;;;;;;;15.00;78.20;;;;;;5124825;27;87110;-47
2021/06/04 01:26:23;;;;;;;;;;;15.00;78.20;;;;;;5121575;27;87692;-48
2021/06/04 01:28:51;;;;;;;;;;;15.00;78.10;;;;;;5120016;27;88599;-48
2021/06/04 01:31:19;;;;;;;;;;;15.00;78.10;;;;;;5123090;27;87170;-47
2021/06/04 01:34:07;;;;;;;;;;;15.00;78.20;;;;;;5122839;27;89183;-48
2021/06/04 01:36:42;;;;;;;;;;;15.00;78.10;;;;;;5109378;27;87167;-49
2021/06/04 01:39:16;;;;;;;;;;;14.90;78.00;;;;;;5121615;27;87805;-48
2021/06/04 01:41:43;;;;;;;;;;;14.90;77.90;;;;;;5122097;27;88990;-48
2021/06/04 01:44:12;;;;;;;;;;;14.90;78.00;;;;;;5120959;27;87176;-47
2021/06/04 01:46:45;;;;;;;;;;;14.90;78.00;;;;;;5126608;27;88759;-48
2021/06/04 01:49:13;;;;;;;;;;;14.90;77.90;;;;;;5123589;27;87205;-48
2021/06/04 01:51:42;;;;;;;;;;;14.90;78.00;;;;;;5120299;27;88905;-48
2021/06/04 01:54:10;;;;;;;;;;;14.80;77.90;;;;;;5124138;27;88319;-48
2021/06/04 01:56:38;;;;;;;;;;;14.90;78.00;;;;;;5120849;27;87117;-48
2021/06/04 01:59:06;;;;;;;;;;;14.80;77.90;;;;;;5124029;27;89145;-47
2021/06/04 02:01:37;;;;;;;;;;;14.80;77.90;;;;;;5123252;27;87322;-47
2021/06/04 02:04:04;;;;;;;;;;;14.80;77.80;;;;;;5124718;27;88862;-48
2021/06/04 02:06:29;;;;;;;;;;;14.80;77.80;;;;;;5123057;27;88659;-48
2021/06/04 02:08:56;;;;;;;;;;;14.80;77.80;;;;;;5126562;27;88545;-48
2021/06/04 02:11:26;;;;;;;;;;;14.80;77.80;;;;;;5123173;27;87560;-47
2021/06/04 02:13:52;;;;;;;;;;;14.80;77.80;;;;;;5122686;27;89057;-47
2021/06/04 02:16:21;;;;;;;;;;;14.70;77.80;;;;;;5121794;27;88405;-48
2021/06/04 02:19:09;;;;;;;;;;;14.70;77.80;;;;;;5122709;27;88280;-48
2021/06/04 02:21:47;;;;;;;;;;;14.70;77.80;;;;;;5105758;27;89544;-48
2021/06/04 02:24:24;;;;;;;;;;;14.70;77.70;;;;;;5123566;27;86965;-47
2021/06/04 02:26:53;;;;;;;;;;;14.70;77.70;;;;;;5123383;27;88465;-48
2021/06/04 02:29:27;;;;;;;;;;;14.70;77.70;;;;;;5122246;27;88015;-48
2021/06/04 02:32:00;;;;;;;;;;;14.70;77.70;;;;;;5121186;27;88065;-48
2021/06/04 02:34:32;;;;;;;;;;;14.70;77.80;;;;;;5118892;27;91283;-48
2021/06/04 02:37:16;;;;;;;;;;;14.60;77.70;;;;;;5119333;27;87154;-49
2021/06/04 02:39:43;;;;;;;;;;;14.60;77.70;;;;;;5123121;27;88836;-48
2021/06/04 02:42:14;;;;;;;;;;;14.60;77.70;;;;;;5119228;27;88235;-48
2021/06/04 02:44:43;;;;;;;;;;;14.60;77.60;;;;;;5119542;27;88402;-48
2021/06/04 02:47:11;;;;;;;;;;;14.60;77.60;;;;;;5120447;27;87308;-48
2021/06/04 02:49:37;;;;;;;;;;;14.60;77.60;;;;;;5123068;27;87844;-48
2021/06/04 02:52:09;;;;;;;;;;;14.60;77.70;;;;;;5123656;27;87137;-47
2021/06/04 02:54:37;;;;;;;;;;;14.50;77.60;;;;;;5119412;27;89481;-49
2021/06/04 02:57:05;;;;;;;;;;;14.60;77.60;;;;;;5120548;27;88101;-49
2021/06/04 02:59:41;;;;;;;;;;;14.50;77.60;;;;;;5124117;27;87730;-49
2021/06/04 03:02:11;;;;;;;;;;;14.50;77.60;;;;;;5122255;27;89479;-47
2021/06/04 03:04:43;;;;;;;;;;;14.50;77.60;;;;;;5120344;27;88100;-48
2021/06/04 03:07:11;;;;;;;;;;;14.50;77.50;;;;;;5123399;27;88857;-47
2021/06/04 03:09:38;;;;;;;;;;;14.50;77.60;;;;;;5121826;27;87701;-47
2021/06/04 03:12:06;;;;;;;;;;;14.40;77.50;;;;;;5121277;27;87095;-47
2021/06/04 03:14:32;;;;;;;;;;;14.50;77.50;;;;;;5122007;27;86549;-48
2021/06/04 03:16:59;;;;;;;;;;;14.50;77.50;;;;;;5119772;27;87175;-48
2021/06/04 03:19:25;;;;;;;;;;;14.40;77.50;;;;;;5119358;27;87569;-47
2021/06/04 03:21:53;;;;;;;;;;;14.40;77.50;;;;;;5118878;27;89329;-49
2021/06/04 03:24:21;;;;;;;;;;;14.40;77.50;;;;;;5119734;27;88092;-49
2021/06/04 03:26:46;;;;;;;;;;;14.40;77.50;;;;;;5122553;27;87572;-48
2021/06/04 03:29:14;;;;;;;;;;;14.40;77.50;;;;;;5122718;27;88883;-48
2021/06/04 03:31:43;;;;;;;;;;;14.40;77.50;;;;;;5122166;27;87177;-48
2021/06/04 03:34:09;;;;;;;;;;;14.40;77.50;;;;;;5118484;27;89412;-48
2021/06/04 03:36:39;;;;;;;;;;;14.30;77.50;;;;;;5121584;27;88208;-48
2021/06/04 03:39:07;;;;;;;;;;;14.30;77.40;;;;;;5121248;27;88969;-47
2021/06/04 03:41:34;;;;;;;;;;;14.30;77.40;;;;;;5117923;27;88197;-49
2021/06/04 03:44:00;;;;;;;;;;;14.30;77.40;;;;;;5118315;27;87180;-47
2021/06/04 03:46:26;;;;;;;;;;;14.30;77.50;;;;;;5118419;27;88167;-48
2021/06/04 03:48:51;;;;;;;;;;;14.30;77.40;;;;;;5119401;27;89142;-47
2021/06/04 03:51:19;;;;;;;;;;;14.30;77.30;;;;;;5120931;27;87129;-48
2021/06/04 03:53:45;;;;;;;;;;;14.30;77.40;;;;;;5118677;27;87681;-48
2021/06/04 03:56:12;;;;;;;;;;;14.30;77.40;;;;;;5118233;27;88062;-48
2021/06/04 03:58:38;;;;;;;;;;;14.30;77.40;;;;;;5122701;27;88296;-47
2021/06/04 04:01:06;;;;;;;;;;;14.20;77.40;;;;;;5117989;27;87525;-49
2021/06/04 04:03:32;;;;;;;;;;;14.20;77.30;;;;;;5122981;27;86443;-48
2021/06/04 04:05:58;;;;;;;;;;;14.20;77.40;;;;;;5121514;27;88214;-47
2021/06/04 04:08:25;;;;;;;;;;;14.20;77.30;;;;;;5121568;27;89381;-48
2021/06/04 04:10:50;;;;;;;;;;;14.20;77.30;;;;;;5123505;27;89629;-48
2021/06/04 04:13:17;;;;;;;;;;;14.20;77.30;;;;;;5121639;27;90290;-48
2021/06/04 04:15:46;;;;;;;;;;;14.20;77.30;;;;;;5121352;27;89647;-48
2021/06/04 04:18:11;;;;;;;;;;;14.10;77.30;;;;;;5125195;27;87204;-49
2021/06/04 04:20:45;;;;;;;;;;;14.10;77.20;;;;;;5128389;27;87482;-48
2021/06/04 04:23:16;;;;;;;;;;;14.10;77.20;;;;;;5121671;27;87995;-47
2021/06/04 04:25:43;;;;;;;;;;;14.10;77.10;;;;;;5122335;27;88653;-47
2021/06/04 04:28:09;;;;;;;;;;;14.10;77.20;;;;;;5123941;27;87491;-47
2021/06/04 04:30:35;;;;;;;;;;;14.10;77.10;;;;;;5105623;27;88059;-47
2021/06/04 04:33:01;;;;;;;;;;;14.10;77.20;;;;;;5121390;27;88759;-47
2021/06/04 04:35:28;;;;;;;;;;;14.10;77.10;;;;;;5121121;27;89371;-48
2021/06/04 04:37:54;;;;;;;;;;;14.10;77.10;;;;;;5122274;27;88456;-48
2021/06/04 04:40:20;;;;;;;;;;;14.10;77.10;;;;;;5124001;27;88817;-47
2021/06/04 04:42:46;;;;;;;;;;;14.10;77.10;;;;;;5121700;27;87109;-48
2021/06/04 04:45:13;;;;;;;;;;;14.10;77.10;;;;;;5122715;27;87444;-48
2021/06/04 04:47:39;;;;;;;;;;;14.00;77.10;;;;;;5121572;27;88504;-48
2021/06/04 04:50:06;;;;;;;;;;;14.10;77.10;;;;;;5122754;27;87137;-48
2021/06/04 04:52:31;;;;;;;;;;;14.00;77.10;;;;;;5122857;27;87673;-49
2021/06/04 04:54:57;;;;;;;;;;;14.00;77.20;;;;;;5103390;27;91479;-48
2021/06/04 04:57:24;;;;;;;;;;;14.00;77.10;;;;;;5123080;27;87218;-48
2021/06/04 04:59:49;;;;;;;;;;;14.00;77.20;;;;;;5122212;27;88108;-47
2021/06/04 05:02:15;;;;;;;;;;;14.00;77.20;;;;;;5126693;27;87906;-48
2021/06/04 05:04:41;;;;;;;;;;;14.00;77.20;;;;;;5125002;27;87122;-48
2021/06/04 05:07:07;;;;;;;;;;;14.00;77.30;;;;;;5124330;27;89298;-48
2021/06/04 05:09:33;;;;;;;;;;;14.00;77.20;;;;;;5124914;27;87126;-48
2021/06/04 05:11:59;;;;;;;;;;;14.00;77.30;;;;;;5125235;27;87170;-48
2021/06/04 05:14:25;;;;;;;;;;;14.00;77.20;;;;;;5125123;27;89560;-49
2021/06/04 05:16:50;;;;;;;;;;;14.00;77.20;;;;;;5123631;27;86841;-47
2021/06/04 05:19:16;;;;;;;;;;;14.00;77.30;;;;;;5120732;27;87964;-47
2021/06/04 05:21:42;;;;;;;;;;;14.00;77.30;;;;;;5121459;27;88995;-48
2021/06/04 05:24:08;;;;;;;;;;;14.00;77.40;;;;;;5125324;27;88058;-49
2021/06/04 05:26:34;;;;;;;;;;;14.00;77.40;;;;;;5122057;27;87982;-48
2021/06/04 05:28:59;;;;;;;;;;;14.00;77.40;;;;;;5122688;27;87192;-48
2021/06/04 05:31:25;;;;;;;;;;;14.00;77.40;;;;;;5123972;27;87580;-48
2021/06/04 05:33:52;;;;;;;;;;;14.00;77.30;;;;;;5124893;27;88263;-47
2021/06/04 05:36:19;;;;;;;;;;;14.00;77.40;;;;;;5124418;27;87146;-48
2021/06/04 05:38:46;;;;;;;;;;;14.00;77.40;;;;;;5123147;27;87473;-48
2021/06/04 05:41:12;;;;;;;;;;;14.00;77.50;;;;;;5122588;27;86471;-48
2021/06/04 05:43:40;;;;;;;;;;;14.00;77.50;;;;;;5121351;27;87104;-48
2021/06/04 05:46:06;;;;;;;;;;;14.00;77.60;;;;;;5122654;27;89936;-48
2021/06/04 05:48:32;;;;;;;;;;;14.00;77.60;;;;;;5119826;27;89921;-48
2021/06/04 05:50:59;;;;;;;;;;;14.00;77.70;;;;;;5121094;27;88822;-48
2021/06/04 05:53:26;;;;;;;;;;;14.00;77.60;;;;;;5119937;27;89344;-47
2021/06/04 05:55:51;;;;;;;;;;;14.00;77.70;;;;;;5121154;27;88629;-47
2021/06/04 05:58:18;;;;;;;;;;;14.00;77.70;;;;;;5120679;27;88160;-48
2021/06/04 06:00:45;;;;;;;;;;;14.00;77.80;;;;;;5121359;27;88158;-48
2021/06/04 06:03:15;;;;;;;;;;;14.00;77.70;;;;;;5123774;27;88834;-48
2021/06/04 06:05:40;;;;;;;;;;;14.00;77.80;;;;;;5121008;27;89076;-47
2021/06/04 06:08:06;;;;;;;;;;;14.00;77.80;;;;;;5124393;27;87701;-48
2021/06/04 06:10:31;;;;;;;;;;;14.00;77.80;;;;;;5122920;27;87229;-47
2021/06/04 06:12:57;;;;;;;;;;;14.00;77.80;;;;;;5123103;27;88896;-47
2021/06/04 06:15:25;;;;;;;;;;;14.00;77.80;;;;;;5124466;27;88564;-48
2021/06/04 06:17:50;;;;;;;;;;;14.00;77.90;;;;;;5123636;27;87462;-48
2021/06/04 06:20:17;;;;;;;;;;;14.00;77.90;;;;;;5124257;27;87511;-48
2021/06/04 06:22:43;;;;;;;;;;;14.00;77.90;;;;;;5123746;27;87137;-48
2021/06/04 06:25:11;;;;;;;;;;;14.00;77.90;;;;;;5124389;27;87332;-48
2021/06/04 06:27:37;;;;;;;;;;;14.00;77.90;;;;;;5121282;27;92318;-47
2021/06/04 06:30:04;;;;;;;;;;;14.00;77.90;;;;;;5125330;27;86453;-48
2021/06/04 06:32:30;;;;;;;;;;;14.00;77.90;;;;;;5120408;27;89626;-47
2021/06/04 06:34:55;;;;;;;;;;;14.00;77.90;;;;;;5122243;27;87108;-48
2021/06/04 06:37:21;;;;;;;;;;;14.10;78.00;;;;;;5122782;27;88084;-48
2021/06/04 06:39:46;;;;;;;;;;;14.00;77.90;;;;;;5123187;27;88941;-48
2021/06/04 06:42:12;;;;;;;;;;;14.00;77.90;;;;;;5120173;27;87267;-47
2021/06/04 06:44:37;;;;;;;;;;;14.00;77.90;;;;;;5119210;27;89377;-47
2021/06/04 06:47:04;;;;;;;;;;;14.00;78.00;;;;;;5119227;27;87624;-47
2021/06/04 06:49:29;;;;;;;;;;;14.10;78.00;;;;;;5122830;27;87311;-47
2021/06/04 06:51:55;;;;;;;;;;;14.10;77.90;;;;;;5120668;27;87917;-48
2021/06/04 06:54:22;;;;;;;;;;;14.10;78.60;;;;;;5122696;27;86411;-48
2021/06/04 06:56:48;;;;;;;;;;;14.10;77.90;;;;;;5121093;27;87959;-47
2021/06/04 06:59:14;;;;;;;;;;;14.10;78.10;;;;;;5120980;27;87730;-47
2021/06/04 07:01:40;;;;;;;;;;;14.10;78.00;;;;;;5121587;27;88046;-47
2021/06/04 07:04:06;;;;;;;;;;;14.10;78.10;;;;;;5121227;27;88043;-48
2021/06/04 07:06:33;;;;;;;;;;;14.10;78.00;;;;;;5121571;27;87258;-49
2021/06/04 07:08:58;;;;;;;;;;;14.10;78.10;;;;;;5121527;27;87140;-47
2021/06/04 07:11:27;;;;;;;;;;;14.10;78.10;;;;;;5124089;27;88808;-48
2021/06/04 07:13:54;;;;;;;;;;;14.10;78.00;;;;;;5119651;27;88644;-47
2021/06/04 07:16:20;;;;;;;;;;;14.10;78.00;;;;;;5121172;27;87497;-47
2021/06/04 07:18:45;;;;;;;;;;;14.10;78.10;;;;;;5119065;27;87572;-48
2021/06/04 07:21:12;;;;;;;;;;;14.10;78.00;;;;;;5119313;27;87180;-48
2021/06/04 07:23:38;;;;;;;;;;;14.10;78.10;;;;;;5118915;27;87916;-48
2021/06/04 07:26:04;;;;;;;;;;;14.10;78.10;;;;;;5118898;27;89131;-47
2021/06/04 07:28:31;;;;;;;;;;;14.10;78.10;;;;;;5119032;27;87147;-47
2021/06/04 07:30:58;;;;;;;;;;;14.10;78.10;;;;;;5119989;27;88799;-48
2021/06/04 07:33:25;;;;;;;;;;;14.10;78.20;;;;;;5123048;27;89717;-48
2021/06/04 07:35:52;;;;;;;;;;;14.20;78.20;;;;;;5122054;27;87495;-47
2021/06/04 07:38:18;;;;;;;;;;;14.20;78.20;;;;;;5120793;27;90054;-47
2021/06/04 07:40:44;;;;;;;;;;;14.20;78.20;;;;;;5121126;27;87155;-47
2021/06/04 07:43:12;;;;;;;;;;;14.20;78.10;;;;;;5123175;27;87574;-47
2021/06/04 07:45:39;;;;;;;;;;;14.20;78.10;;;;;;5119792;27;88971;-47
2021/06/04 07:48:05;;;;;;;;;;;14.20;78.10;;;;;;5119545;27;87128;-48
2021/06/04 07:50:31;;;;;;;;;;;14.20;78.20;;;;;;5118879;27;90274;-48
2021/06/04 07:52:57;;;;;;;;;;;14.20;78.20;;;;;;5120556;27;87940;-48
2021/06/04 07:55:23;;;;;;;;;;;14.20;78.20;;;;;;5123901;27;87170;-48
2021/06/04 07:57:49;;;;;;;;;;;14.20;78.30;;;;;;5119689;27;89145;-47
2021/06/04 08:00:18;;;;;;;;;;;14.20;78.30;;;;;;5121703;27;87191;-47
2021/06/04 08:02:44;;;;;;;;;;;14.20;78.30;;;;;;5119251;27;88767;-47
2021/06/04 08:05:10;;;;;;;;;;;14.20;78.40;;;;;;5118275;27;89526;-49
2021/06/04 08:07:35;;;;;;;;;;;14.20;78.40;;;;;;5119848;27;86380;-49
2021/06/04 08:10:01;;;;;;;;;;;14.30;78.50;;;;;;5120503;27;88445;-47
2021/06/04 08:12:30;;;;;;;;;;;14.20;78.50;;;;;;5121248;27;88146;-47
2021/06/04 08:15:08;;;;;;;;;;;14.20;78.50;;;;;;5121799;27;88073;-47
2021/06/04 08:17:34;;;;;;;;;;;14.20;78.50;;;;;;5123137;27;90007;-47
2021/06/04 08:19:59;;;;;;;;;;;14.20;78.50;;;;;;5121191;27;87121;-47
2021/06/04 08:22:25;;;;;;;;;;;14.30;78.50;;;;;;5122189;27;89214;-47
2021/06/04 08:24:50;;;;;;;;;;;14.30;78.40;;;;;;5120159;27;88346;-47
2021/06/04 08:27:17;;;;;;;;;;;14.30;78.40;;;;;;5119160;27;88725;-47
2021/06/04 08:29:45;;;;;;;;;;;14.30;78.50;;;;;;5121340;27;89089;-48
2021/06/04 08:32:11;;;;;;;;;;;14.30;78.70;;;;;;5120485;27;88999;-48
2021/06/04 08:34:37;;;;;;;;;;;14.30;78.60;;;;;;5120430;27;87265;-47
2021/06/04 08:37:04;;;;;;;;;;;14.30;78.70;;;;;;5122781;27;87183;-48
2021/06/04 08:39:32;;;;;;;;;;;14.40;78.70;;;;;;5118724;27;88086;-49
2021/06/04 08:42:03;;;;;;;;;;;14.40;78.70;;;;;;5117793;27;89486;-48
2021/06/04 08:44:32;;;;;;;;;;;14.40;78.50;;;;;;5117619;27;89298;-47
2021/06/04 08:46:57;;;;;;;;;;;14.50;78.40;;;;;;5122193;27;87108;-48
2021/06/04 08:49:26;;;;;;;;;;;14.50;78.40;;;;;;5122272;27;87590;-49
2021/06/04 08:51:51;;;;;;;;;;;14.50;78.40;;;;;;5118822;27;87507;-48
2021/06/04 08:54:29;;;;;;;;;;;14.50;78.40;;;;;;5124148;27;87246;-48
2021/06/04 08:56:57;;;;;;;;;;;14.60;78.40;;;;;;5122758;27;89063;-47
2021/06/04 08:59:23;;;;;;;;;;;14.60;78.10;;;;;;5124102;27;89275;-47
2021/06/04 09:01:49;;;;;;;;;;;14.60;78.10;;;;;;5125211;27;88644;-47
2021/06/04 09:04:38;;;;;;;;;;;14.60;78.40;;;;;;5121276;27;90151;-48
2021/06/04 09:07:07;;;;;;;;;;;14.60;78.00;;;;;;5074912;27;87350;-48
2021/06/04 09:09:37;;;;;;;;;;;14.60;77.70;;;;;;5120802;27;87742;-47
2021/06/04 09:12:09;;;;;;;;;;;14.70;77.70;;;;;;5122229;27;88065;-47
2021/06/04 09:14:35;;;;;;;;;;;14.70;77.70;;;;;;5121069;27;87126;-48
2021/06/04 09:17:06;;;;;;;;;;;14.70;77.80;;;;;;5122212;27;88282;-48
2021/06/04 09:19:31;;;;;;;;;;;14.70;77.80;;;;;;5122949;27;88350;-47
2021/06/04 09:21:57;;;;;;;;;;;14.70;77.60;;;;;;5127461;27;86466;-48
2021/06/04 09:24:30;;;;;;;;;;;14.70;77.50;;;;;;5123767;27;89222;-48
2021/06/04 09:26:55;;;;;;;;;;;14.80;77.70;;;;;;5122446;27;87125;-47
2021/06/04 09:29:23;;;;;;;;;;;14.80;77.60;;;;;;5122689;27;88098;-49
2021/06/04 09:31:57;;;;;;;;;;;14.80;77.70;;;;;;5121037;27;88524;-50
2021/06/04 09:34:30;;;;;;;;;;;14.80;77.60;;;;;;5124310;27;87272;-48
2021/06/04 09:37:02;;;;;;;;;;;14.80;77.70;;;;;;5121087;27;88912;-48
2021/06/04 09:39:30;;;;;;;;;;;14.80;77.60;;;;;;5120807;27;87833;-48
2021/06/04 09:42:16;;;;;;;;;;;14.80;77.50;;;;;;5123208;27;88736;-47
2021/06/04 09:44:53;;;;;;;;;;;14.90;77.70;;;;;;5122783;27;89200;-47
2021/06/04 09:47:24;;;;;;;;;;;14.90;77.70;;;;;;5123150;27;87192;-48
2021/06/04 09:49:51;;;;;;;;;;;14.90;77.60;;;;;;5122156;27;88686;-48
2021/06/04 09:52:28;;;;;;;;;;;14.90;77.60;;;;;;5123227;27;89233;-47
2021/06/04 09:55:05;;;;;;;;;;;14.90;77.70;;;;;;5123718;27;88123;-48
2021/06/04 09:57:30;;;;;;;;;;;15.00;77.70;;;;;;5125147;27;88545;-47
2021/06/04 10:00:14;;;;;;;;;;;15.00;77.60;;;;;;5121541;27;88290;-47
2021/06/04 10:02:40;;;;;;;;;;;15.00;77.60;;;;;;5122652;27;87129;-47
2021/06/04 10:05:10;;;;;;;;;;;15.10;77.40;;;;;;5122337;27;89137;-47
2021/06/04 10:07:36;;;;;;;;;;;15.10;77.80;;;;;;5126724;27;88529;-47
2021/06/04 10:10:08;;;;;;;;;;;15.10;77.40;;;;;;5124108;27;87875;-47
2021/06/04 10:12:39;;;;;;;;;;;15.10;77.50;;;;;;5123455;27;87486;-47
2021/06/04 10:15:25;;;;;;;;;;;15.20;77.40;;;;;;5122994;27;87125;-47
2021/06/04 10:18:01;;;;;;;;;;;15.20;77.50;;;;;;5123357;27;89149;-47
2021/06/04 10:20:31;;;;;;;;;;;15.20;77.50;;;;;;5121554;27;90429;-47
2021/06/04 10:23:02;;;;;;;;;;;15.20;77.70;;;;;;5119416;27;87965;-47
2021/06/04 10:25:34;;;;;;;;;;;15.20;77.80;;;;;;5120924;27;87844;-47
2021/06/04 10:28:00;;;;;;;;;;;15.30;77.90;;;;;;5119474;27;87484;-47
2021/06/04 10:30:46;;;;;;;;;;;15.30;77.90;;;;;;5122768;27;87190;-49
2021/06/04 10:33:25;;;;;;;;;;;15.30;78.10;;;;;;5120009;27;87917;-47
2021/06/04 10:35:59;;;;;;;;;;;15.30;77.80;;;;;;5121376;27;87461;-48
2021/06/04 10:38:29;;;;;;;;;;;15.30;77.70;;;;;;5122392;27;88639;-47
2021/06/04 10:40:58;;;;;;;;;;;15.30;77.60;;;;;;5122961;27;88222;-48
2021/06/04 10:43:26;;;;;;;;;;;15.40;77.40;;;;;;5119899;27;87176;-48
2021/06/04 10:45:52;;;;;;;;;;;15.30;77.40;;;;;;5123333;27;89729;-48
2021/06/04 10:48:17;;;;;;;;;;;15.40;77.40;;;;;;5120378;27;87252;-47
2021/06/04 10:51:06;;;;;;;;;;;15.40;77.30;;;;;;5123012;27;88458;-47
2021/06/04 10:53:41;;;;;;;;;;;15.40;77.40;;;;;;5107909;27;87187;-47
2021/06/04 10:56:09;;;;;;;;;;;15.40;77.40;;;;;;5121177;27;88717;-47
2021/06/04 10:58:55;;;;;;;;;;;15.40;77.60;;;;;;5122420;27;88919;-48
2021/06/04 11:01:26;;;;;;;;;;;15.40;77.70;;;;;;5123333;27;88455;-47
2021/06/04 11:04:06;;;;;;;;;;;15.40;77.50;;;;;;5123930;27;86894;-48
2021/06/04 11:06:32;;;;;;;;;;;15.40;77.60;;;;;;5119055;27;88144;-48
2021/06/04 11:09:00;;;;;;;;;;;15.50;77.70;;;;;;5118456;27;89155;-49
2021/06/04 11:11:26;;;;;;;;;;;15.50;77.60;;;;;;5122283;27;88069;-49
2021/06/04 11:13:57;;;;;;;;;;;15.60;77.60;;;;;;5125063;27;88876;-47
2021/06/04 11:16:32;;;;;;;;;;;15.60;77.50;;;;;;5103753;27;88836;-48
2021/06/04 11:21:50;;;;;;;;;;;15.60;77.50;;;;;;5119061;27;87129;-48
2021/06/04 11:24:34;;;;;;;;;;;15.60;77.70;;;;;;5119438;27;87171;-48
2021/06/04 11:27:00;;;;;;;;;;;15.70;77.80;;;;;;5123353;27;87400;-48
2021/06/04 11:29:33;;;;;;;;;;;15.70;77.90;;;;;;5120991;27;88357;-47
2021/06/04 11:31:59;;;;;;;;;;;15.70;77.80;;;;;;5121863;27;87198;-49
2021/06/04 11:34:34;;;;;;;;;;;15.70;77.90;;;;;;5122885;27;88806;-49
2021/06/04 11:37:02;;;;;;;;;;;15.80;77.80;;;;;;5125442;27;88718;-48
2021/06/04 11:39:33;;;;;;;;;;;15.80;77.50;;;;;;5120860;27;88917;-47
2021/06/04 11:42:00;;;;;;;;;;;15.80;77.70;;;;;;5119180;27;89511;-47
2021/06/04 11:44:31;;;;;;;;;;;15.80;77.60;;;;;;5123319;27;87228;-48
2021/06/04 11:47:11;;;;;;;;;;;15.90;77.50;;;;;;5119775;27;88649;-48
2021/06/04 11:49:52;;;;;;;;;;;15.90;77.40;;;;;;5118334;27;89307;-47
2021/06/04 11:52:30;;;;;;;;;;;15.90;77.40;;;;;;5119761;27;87203;-47
2021/06/04 11:55:08;;;;;;;;;;;16.00;77.40;;;;;;5123334;27;88139;-47
2021/06/04 11:57:46;;;;;;;;;;;16.00;77.50;;;;;;5121374;27;88098;-48
2021/06/04 12:00:32;;;;;;;;;;;16.00;77.50;;;;;;5122037;27;87205;-47
2021/06/04 12:03:03;;;;;;;;;;;16.00;77.50;;;;;;5100027;27;89322;-47
2021/06/04 12:05:34;;;;;;;;;;;16.10;77.30;;;;;;5119269;27;87134;-48
2021/06/04 12:08:19;;;;;;;;;;;16.10;77.10;;;;;;5120064;27;87944;-48
2021/06/04 12:10:53;;;;;;;;;;;16.10;76.90;;;;;;5121525;27;88135;-48
2021/06/04 12:13:34;;;;;;;;;;;16.10;76.90;;;;;;5119104;27;87163;-48
2021/06/04 12:16:18;;;;;;;;;;;16.10;77.10;;;;;;5120384;27;87663;-47
2021/06/04 12:18:49;;;;;;;;;;;16.20;77.10;;;;;;5122691;27;87271;-48
2021/06/04 12:21:33;;;;;;;;;;;16.10;77.00;;;;;;5122574;27;86943;-47
2021/06/04 12:23:58;;;;;;;;;;;16.20;76.80;;;;;;5121011;27;87280;-47
2021/06/04 12:26:52;;;;;;;;;;;16.20;76.60;;;;;;5118297;27;87174;-48
2021/06/04 12:29:20;;;;;;;;;;;16.20;76.80;;;;;;5121320;27;89031;-49
2021/06/04 12:32:01;;;;;;;;;;;16.20;76.60;;;;;;5121187;27;89388;-47
2021/06/04 12:34:47;;;;;;;;;;;16.20;76.60;;;;;;5121868;27;87173;-48
2021/06/04 12:37:19;;;;;;;;;;;16.20;76.70;;;;;;5123213;27;88925;-49
2021/06/04 12:39:49;;;;;;;;;;;16.20;76.40;;;;;;5122400;27;88684;-48
2021/06/04 12:42:40;;;;;;;;;;;16.30;76.60;;;;;;5124894;27;87248;-48
2021/06/04 12:45:15;;;;;;;;;;;16.30;76.40;;;;;;5084179;27;87182;-47
2021/06/04 12:48:06;;;;;;;;;;;16.30;76.60;;;;;;5128630;27;87910;-48
2021/06/04 12:50:34;;;;;;;;;;;16.30;76.60;;;;;;5117677;27;88045;-47
2021/06/04 12:53:20;;;;;;;;;;;16.30;76.70;;;;;;5125745;27;88728;-47
2021/06/04 12:55:51;;;;;;;;;;;16.30;76.70;;;;;;5122201;27;89073;-47
2021/06/04 12:58:28;;;;;;;;;;;16.40;76.80;;;;;;5122904;27;88938;-47
2021/06/04 13:01:14;;;;;;;;;;;16.40;76.60;;;;;;5124330;27;89722;-47
2021/06/04 13:03:42;;;;;;;;;;;16.40;76.70;;;;;;5124749;27;87137;-48
2021/06/04 13:06:12;;;;;;;;;;;16.40;76.10;;;;;;5122264;27;87520;-48
2021/06/04 13:08:45;;;;;;;;;;;16.40;76.40;;;;;;5124864;27;87135;-48
2021/06/04 13:11:11;;;;;;;;;;;16.50;75.90;;;;;;5124826;27;89546;-47
2021/06/04 13:13:38;;;;;;;;;;;16.50;75.80;;;;;;5122609;27;87305;-47
2021/06/04 13:16:24;;;;;;;;;;;16.50;75.70;;;;;;5125156;27;87263;-47
2021/06/04 13:18:51;;;;;;;;;;;16.50;75.80;;;;;;5125216;27;90052;-48
2021/06/04 13:21:18;;;;;;;;;;;16.50;75.40;;;;;;5123120;27;90766;-47
2021/06/04 13:23:56;;;;;;;;;;;16.60;75.60;;;;;;5121326;27;87141;-47
2021/06/04 13:26:23;;;;;;;;;;;16.60;75.70;;;;;;5121068;27;88911;-47
2021/06/04 13:28:50;;;;;;;;;;;16.60;75.70;;;;;;5121912;27;88244;-48
2021/06/04 13:31:21;;;;;;;;;;;16.60;75.70;;;;;;5127500;27;87162;-48
2021/06/04 13:33:50;;;;;;;;;;;16.60;75.70;;;;;;5123984;27;89737;-47
2021/06/04 13:36:16;;;;;;;;;;;16.70;75.80;;;;;;5120518;27;87148;-50
2021/06/04 13:38:47;;;;;;;;;;;16.70;76.10;;;;;;5120337;27;87541;-47
2021/06/04 13:41:25;;;;;;;;;;;16.70;75.90;;;;;;5122461;27;88199;-47
2021/06/04 13:43:53;;;;;;;;;;;16.70;75.90;;;;;;5120878;27;87153;-48
2021/06/04 13:46:22;;;;;;;;;;;16.80;76.00;;;;;;5123950;27;88070;-48
2021/06/04 13:49:06;;;;;;;;;;;16.70;75.90;;;;;;5120914;27;88289;-48
2021/06/04 13:51:52;;;;;;;;;;;16.80;76.00;;;;;;5123834;27;87199;-47
2021/06/04 13:54:44;;;;;;;;;;;16.80;75.70;;;;;;5127036;27;87527;-47
2021/06/04 13:57:21;;;;;;;;;;;16.80;75.60;;;;;;5119274;27;87160;-48
2021/06/04 13:59:47;;;;;;;;;;;16.90;75.50;;;;;;5123690;27;89077;-48
2021/06/04 14:02:19;;;;;;;;;;;16.90;75.40;;;;;;5123211;27;88214;-47
2021/06/04 14:04:46;;;;;;;;;;;16.90;75.30;;;;;;5123819;27;86569;-48
2021/06/04 14:07:24;;;;;;;;;;;16.90;75.50;;;;;;5122470;27;87200;-47
2021/06/04 14:09:50;;;;;;;;;;;16.90;75.60;;;;;;5119661;27;90244;-47
2021/06/04 14:12:19;;;;;;;;;;;16.90;75.70;;;;;;5119869;27;88801;-47
2021/06/04 14:14:46;;;;;;;;;;;16.90;75.50;;;;;;5123492;27;88486;-47
2021/06/04 14:17:16;;;;;;;;;;;17.00;75.70;;;;;;5124930;27;88728;-48
2021/06/04 14:19:50;;;;;;;;;;;16.90;75.60;;;;;;5124222;27;87171;-48
2021/06/04 14:22:34;;;;;;;;;;;17.00;75.60;;;;;;5120718;27;88069;-47
2021/06/04 14:25:00;;;;;;;;;;;17.00;75.70;;;;;;5121657;27;87266;-49
2021/06/04 14:27:30;;;;;;;;;;;17.00;75.40;;;;;;5122445;27;89189;-47
2021/06/04 14:29:57;;;;;;;;;;;17.00;75.60;;;;;;5123242;27;89158;-48
2021/06/04 14:32:23;;;;;;;;;;;17.10;75.60;;;;;;5120169;27;87132;-48
2021/06/04 14:35:03;;;;;;;;;;;17.10;75.30;;;;;;5120531;27;87593;-47